sensor_id;sensor_type;location;lat;lon;timestamp;P1;durP1;ratioP1;P2;durP2;ratioP2
25207;SDS011;13153;52.316;21.166;2022-10-22T00:00:25;37.97;;;23.30;;
25207;SDS011;13153;52.316;21.166;2022-10-22T00:02:52;39.72;;;22.10;;
25207;SDS011;13153;52.316;21.166;2022-10-22T00:05:18;39.17;;;22.27;;
25207;SDS011;13153;52.316;21.166;2022-10-22T00:07:43;37.75;;;22.60;;
25207;SDS011;13153;52.316;21.166;2022-10-22T00:10:09;38.83;;;23.60;;
25207;SDS011;13153;52.316;21.166;2022-10-22T00:12:35;41.60;;;23.27;;
25207;SDS011;13153;52.316;21.166;2022-10-22T00:15:04;38.72;;;23.33;;
25207;SDS011;13153;52.316;21.166;2022-10-22T00:17:30;44.38;;;24.40;;
25207;SDS011;13153;52.316;21.166;2022-10-22T00:19:56;40.47;;;22.95;;
25207;SDS011;13153;52.316;21.166;2022-10-22T00:22:22;37.00;;;22.45;;
25207;SDS011;13153;52.316;21.166;2022-10-22T00:24:47;37.92;;;23.05;;
25207;SDS011;13153;52.316;21.166;2022-10-22T00:27:13;39.38;;;23.42;;
25207;SDS011;13153;52.316;21.166;2022-10-22T00:29:39;39.05;;;23.17;;
25207;SDS011;13153;52.316;21.166;2022-10-22T00:32:05;35.83;;;21.90;;
25207;SDS011;13153;52.316;21.166;2022-10-22T00:34:31;39.53;;;23.35;;
25207;SDS011;13153;52.316;21.166;2022-10-22T00:36:58;40.38;;;23.42;;
25207;SDS011;13153;52.316;21.166;2022-10-22T00:39:24;41.97;;;24.05;;
25207;SDS011;13153;52.316;21.166;2022-10-22T00:41:52;43.40;;;25.35;;
25207;SDS011;13153;52.316;21.166;2022-10-22T00:48:00;39.75;;;24.40;;
25207;SDS011;13153;52.316;21.166;2022-10-22T00:50:35;43.58;;;24.15;;
25207;SDS011;13153;52.316;21.166;2022-10-22T00:53:05;38.80;;;23.95;;
25207;SDS011;13153;52.316;21.166;2022-10-22T00:55:37;39.35;;;23.70;;
25207;SDS011;13153;52.316;21.166;2022-10-22T00:58:05;41.80;;;23.75;;
25207;SDS011;13153;52.316;21.166;2022-10-22T01:00:32;43.22;;;24.52;;
25207;SDS011;13153;52.316;21.166;2022-10-22T01:02:57;39.78;;;24.75;;
25207;SDS011;13153;52.316;21.166;2022-10-22T01:05:27;40.42;;;25.02;;
25207;SDS011;13153;52.316;21.166;2022-10-22T01:07:57;38.90;;;23.65;;
25207;SDS011;13153;52.316;21.166;2022-10-22T01:13:48;42.13;;;23.90;;
25207;SDS011;13153;52.316;21.166;2022-10-22T01:26:29;41.05;;;24.08;;
25207;SDS011;13153;52.316;21.166;2022-10-22T01:32:15;39.40;;;23.80;;
25207;SDS011;13153;52.316;21.166;2022-10-22T01:34:48;41.55;;;23.50;;
25207;SDS011;13153;52.316;21.166;2022-10-22T01:37:23;39.25;;;23.77;;
25207;SDS011;13153;52.316;21.166;2022-10-22T01:39:55;38.28;;;23.58;;
25207;SDS011;13153;52.316;21.166;2022-10-22T01:42:24;40.90;;;24.20;;
25207;SDS011;13153;52.316;21.166;2022-10-22T01:44:50;38.75;;;23.55;;
25207;SDS011;13153;52.316;21.166;2022-10-22T01:58:17;41.80;;;24.52;;
25207;SDS011;13153;52.316;21.166;2022-10-22T02:01:04;38.75;;;23.65;;
25207;SDS011;13153;52.316;21.166;2022-10-22T02:03:49;40.80;;;24.42;;
25207;SDS011;13153;52.316;21.166;2022-10-22T02:06:36;39.22;;;24.33;;
25207;SDS011;13153;52.316;21.166;2022-10-22T02:09:07;39.60;;;25.05;;
25207;SDS011;13153;52.316;21.166;2022-10-22T02:11:36;38.05;;;23.90;;
25207;SDS011;13153;52.316;21.166;2022-10-22T02:14:03;39.67;;;24.48;;
25207;SDS011;13153;52.316;21.166;2022-10-22T02:16:35;39.85;;;24.38;;
25207;SDS011;13153;52.316;21.166;2022-10-22T02:19:26;39.25;;;24.27;;
25207;SDS011;13153;52.316;21.166;2022-10-22T02:22:02;39.55;;;24.25;;
25207;SDS011;13153;52.316;21.166;2022-10-22T02:24:29;39.05;;;23.08;;
25207;SDS011;13153;52.316;21.166;2022-10-22T02:32:31;45.30;;;26.83;;
25207;SDS011;13153;52.316;21.166;2022-10-22T02:35:06;45.88;;;26.77;;
25207;SDS011;13153;52.316;21.166;2022-10-22T02:37:36;39.33;;;25.98;;
25207;SDS011;13153;52.316;21.166;2022-10-22T02:40:04;43.05;;;27.13;;
25207;SDS011;13153;52.316;21.166;2022-10-22T02:42:31;41.35;;;26.23;;
25207;SDS011;13153;52.316;21.166;2022-10-22T02:45:00;40.45;;;25.45;;
25207;SDS011;13153;52.316;21.166;2022-10-22T02:47:26;43.88;;;26.38;;
25207;SDS011;13153;52.316;21.166;2022-10-22T02:49:52;40.38;;;25.27;;
25207;SDS011;13153;52.316;21.166;2022-10-22T02:52:17;43.17;;;25.80;;
25207;SDS011;13153;52.316;21.166;2022-10-22T02:54:43;42.17;;;25.70;;
25207;SDS011;13153;52.316;21.166;2022-10-22T02:57:09;43.08;;;26.77;;
25207;SDS011;13153;52.316;21.166;2022-10-22T02:59:35;42.38;;;26.40;;
25207;SDS011;13153;52.316;21.166;2022-10-22T03:02:01;41.72;;;26.27;;
25207;SDS011;13153;52.316;21.166;2022-10-22T03:04:26;50.67;;;28.02;;
25207;SDS011;13153;52.316;21.166;2022-10-22T03:06:52;44.28;;;27.23;;
25207;SDS011;13153;52.316;21.166;2022-10-22T03:09:18;42.67;;;26.05;;
25207;SDS011;13153;52.316;21.166;2022-10-22T03:11:44;39.70;;;26.45;;
25207;SDS011;13153;52.316;21.166;2022-10-22T03:14:10;43.10;;;26.52;;
25207;SDS011;13153;52.316;21.166;2022-10-22T03:16:36;41.67;;;26.80;;
25207;SDS011;13153;52.316;21.166;2022-10-22T03:19:02;46.28;;;27.17;;
25207;SDS011;13153;52.316;21.166;2022-10-22T03:21:31;43.85;;;26.55;;
25207;SDS011;13153;52.316;21.166;2022-10-22T03:26:37;42.70;;;26.88;;
25207;SDS011;13153;52.316;21.166;2022-10-22T03:29:06;42.95;;;26.95;;
25207;SDS011;13153;52.316;21.166;2022-10-22T03:31:34;43.50;;;26.92;;
25207;SDS011;13153;52.316;21.166;2022-10-22T03:33:59;43.85;;;27.80;;
25207;SDS011;13153;52.316;21.166;2022-10-22T03:36:25;39.38;;;26.13;;
25207;SDS011;13153;52.316;21.166;2022-10-22T03:38:51;45.63;;;28.77;;
25207;SDS011;13153;52.316;21.166;2022-10-22T03:41:17;48.05;;;29.45;;
25207;SDS011;13153;52.316;21.166;2022-10-22T03:43:43;49.65;;;30.65;;
25207;SDS011;13153;52.316;21.166;2022-10-22T03:46:14;47.20;;;29.63;;
25207;SDS011;13153;52.316;21.166;2022-10-22T03:48:40;48.42;;;30.52;;
25207;SDS011;13153;52.316;21.166;2022-10-22T03:51:06;45.15;;;29.48;;
25207;SDS011;13153;52.316;21.166;2022-10-22T03:53:32;45.78;;;28.08;;
25207;SDS011;13153;52.316;21.166;2022-10-22T03:55:57;41.97;;;27.50;;
25207;SDS011;13153;52.316;21.166;2022-10-22T03:58:23;44.67;;;29.13;;
25207;SDS011;13153;52.316;21.166;2022-10-22T04:00:49;40.15;;;27.23;;
25207;SDS011;13153;52.316;21.166;2022-10-22T04:03:14;43.72;;;28.35;;
25207;SDS011;13153;52.316;21.166;2022-10-22T04:05:40;45.00;;;28.75;;
25207;SDS011;13153;52.316;21.166;2022-10-22T04:08:06;40.25;;;27.25;;
25207;SDS011;13153;52.316;21.166;2022-10-22T04:10:32;38.78;;;26.33;;
25207;SDS011;13153;52.316;21.166;2022-10-22T04:12:58;39.35;;;25.80;;
25207;SDS011;13153;52.316;21.166;2022-10-22T04:15:23;41.55;;;28.15;;
25207;SDS011;13153;52.316;21.166;2022-10-22T04:17:52;41.75;;;28.88;;
25207;SDS011;13153;52.316;21.166;2022-10-22T04:20:18;43.00;;;27.65;;
25207;SDS011;13153;52.316;21.166;2022-10-22T04:22:43;43.38;;;27.30;;
25207;SDS011;13153;52.316;21.166;2022-10-22T04:25:09;40.65;;;27.25;;
25207;SDS011;13153;52.316;21.166;2022-10-22T04:27:35;41.83;;;27.70;;
25207;SDS011;13153;52.316;21.166;2022-10-22T04:30:02;41.17;;;28.13;;
25207;SDS011;13153;52.316;21.166;2022-10-22T04:32:30;41.53;;;26.67;;
25207;SDS011;13153;52.316;21.166;2022-10-22T04:34:56;40.47;;;26.80;;
25207;SDS011;13153;52.316;21.166;2022-10-22T04:37:22;40.75;;;26.58;;
25207;SDS011;13153;52.316;21.166;2022-10-22T04:39:47;40.85;;;26.80;;
25207;SDS011;13153;52.316;21.166;2022-10-22T04:42:13;39.50;;;26.73;;
25207;SDS011;13153;52.316;21.166;2022-10-22T04:44:39;41.03;;;27.02;;
25207;SDS011;13153;52.316;21.166;2022-10-22T04:47:05;39.75;;;26.35;;
25207;SDS011;13153;52.316;21.166;2022-10-22T04:49:31;39.65;;;27.30;;
25207;SDS011;13153;52.316;21.166;2022-10-22T04:51:56;41.00;;;27.02;;
25207;SDS011;13153;52.316;21.166;2022-10-22T04:54:22;41.95;;;27.63;;
25207;SDS011;13153;52.316;21.166;2022-10-22T04:56:48;42.28;;;27.05;;
25207;SDS011;13153;52.316;21.166;2022-10-22T04:59:14;38.90;;;26.77;;
25207;SDS011;13153;52.316;21.166;2022-10-22T05:01:43;42.28;;;27.35;;
25207;SDS011;13153;52.316;21.166;2022-10-22T05:04:10;39.28;;;25.98;;
25207;SDS011;13153;52.316;21.166;2022-10-22T05:06:39;40.67;;;26.15;;
25207;SDS011;13153;52.316;21.166;2022-10-22T05:09:07;41.95;;;27.70;;
25207;SDS011;13153;52.316;21.166;2022-10-22T05:11:38;39.50;;;26.17;;
25207;SDS011;13153;52.316;21.166;2022-10-22T05:14:06;38.38;;;26.67;;
25207;SDS011;13153;52.316;21.166;2022-10-22T05:16:33;42.65;;;27.38;;
25207;SDS011;13153;52.316;21.166;2022-10-22T05:19:00;43.60;;;27.92;;
25207;SDS011;13153;52.316;21.166;2022-10-22T05:21:27;42.88;;;28.42;;
25207;SDS011;13153;52.316;21.166;2022-10-22T05:23:53;41.08;;;27.88;;
25207;SDS011;13153;52.316;21.166;2022-10-22T05:26:21;41.95;;;27.05;;
25207;SDS011;13153;52.316;21.166;2022-10-22T05:28:49;42.92;;;28.23;;
25207;SDS011;13153;52.316;21.166;2022-10-22T05:31:15;44.17;;;28.67;;
25207;SDS011;13153;52.316;21.166;2022-10-22T05:33:42;43.00;;;28.42;;
25207;SDS011;13153;52.316;21.166;2022-10-22T05:36:14;41.13;;;28.02;;
25207;SDS011;13153;52.316;21.166;2022-10-22T05:38:43;45.15;;;28.75;;
25207;SDS011;13153;52.316;21.166;2022-10-22T05:41:11;44.53;;;29.20;;
25207;SDS011;13153;52.316;21.166;2022-10-22T05:43:40;42.92;;;28.75;;
25207;SDS011;13153;52.316;21.166;2022-10-22T05:46:08;44.20;;;28.65;;
25207;SDS011;13153;52.316;21.166;2022-10-22T05:48:39;45.95;;;29.08;;
25207;SDS011;13153;52.316;21.166;2022-10-22T05:51:09;43.22;;;27.90;;
25207;SDS011;13153;52.316;21.166;2022-10-22T05:53:38;45.05;;;27.02;;
25207;SDS011;13153;52.316;21.166;2022-10-22T05:56:08;44.88;;;28.13;;
25207;SDS011;13153;52.316;21.166;2022-10-22T05:58:40;44.20;;;28.33;;
25207;SDS011;13153;52.316;21.166;2022-10-22T06:01:10;41.58;;;28.17;;
25207;SDS011;13153;52.316;21.166;2022-10-22T06:03:51;44.25;;;28.17;;
25207;SDS011;13153;52.316;21.166;2022-10-22T06:06:29;44.00;;;28.40;;
25207;SDS011;13153;52.316;21.166;2022-10-22T06:09:06;48.33;;;28.23;;
25207;SDS011;13153;52.316;21.166;2022-10-22T06:11:50;41.05;;;26.83;;
25207;SDS011;13153;52.316;21.166;2022-10-22T06:14:17;40.67;;;26.40;;
25207;SDS011;13153;52.316;21.166;2022-10-22T06:16:45;45.70;;;28.10;;
25207;SDS011;13153;52.316;21.166;2022-10-22T06:19:12;49.15;;;29.90;;
25207;SDS011;13153;52.316;21.166;2022-10-22T06:21:41;43.70;;;27.73;;
25207;SDS011;13153;52.316;21.166;2022-10-22T06:24:07;42.47;;;28.00;;
25207;SDS011;13153;52.316;21.166;2022-10-22T06:26:34;47.53;;;29.00;;
25207;SDS011;13153;52.316;21.166;2022-10-22T06:29:01;49.72;;;28.75;;
25207;SDS011;13153;52.316;21.166;2022-10-22T06:31:28;46.65;;;29.25;;
25207;SDS011;13153;52.316;21.166;2022-10-22T06:34:00;44.97;;;28.52;;
25207;SDS011;13153;52.316;21.166;2022-10-22T06:36:28;45.60;;;28.75;;
25207;SDS011;13153;52.316;21.166;2022-10-22T06:38:54;44.58;;;29.05;;
25207;SDS011;13153;52.316;21.166;2022-10-22T06:41:21;43.25;;;28.38;;
25207;SDS011;13153;52.316;21.166;2022-10-22T06:43:48;47.08;;;28.42;;
25207;SDS011;13153;52.316;21.166;2022-10-22T06:46:16;46.00;;;28.30;;
25207;SDS011;13153;52.316;21.166;2022-10-22T06:49:02;40.83;;;26.77;;
25207;SDS011;13153;52.316;21.166;2022-10-22T06:51:29;47.10;;;27.95;;
25207;SDS011;13153;52.316;21.166;2022-10-22T06:53:56;44.53;;;27.88;;
25207;SDS011;13153;52.316;21.166;2022-10-22T06:56:24;42.80;;;29.08;;
25207;SDS011;13153;52.316;21.166;2022-10-22T06:58:52;42.85;;;28.35;;
25207;SDS011;13153;52.316;21.166;2022-10-22T07:01:21;45.15;;;28.15;;
25207;SDS011;13153;52.316;21.166;2022-10-22T07:03:51;43.03;;;27.08;;
25207;SDS011;13153;52.316;21.166;2022-10-22T07:06:18;45.42;;;28.45;;
25207;SDS011;13153;52.316;21.166;2022-10-22T07:08:46;44.22;;;28.05;;
25207;SDS011;13153;52.316;21.166;2022-10-22T07:13:40;48.30;;;28.20;;
25207;SDS011;13153;52.316;21.166;2022-10-22T07:16:07;45.00;;;27.70;;
25207;SDS011;13153;52.316;21.166;2022-10-22T07:18:33;43.08;;;27.35;;
25207;SDS011;13153;52.316;21.166;2022-10-22T07:21:01;44.42;;;27.67;;
25207;SDS011;13153;52.316;21.166;2022-10-22T07:23:27;41.35;;;27.15;;
25207;SDS011;13153;52.316;21.166;2022-10-22T07:25:54;44.15;;;27.85;;
25207;SDS011;13153;52.316;21.166;2022-10-22T07:28:20;41.75;;;26.42;;
25207;SDS011;13153;52.316;21.166;2022-10-22T07:30:46;45.97;;;27.60;;
25207;SDS011;13153;52.316;21.166;2022-10-22T07:33:12;42.15;;;27.27;;
25207;SDS011;13153;52.316;21.166;2022-10-22T07:35:38;42.45;;;27.45;;
25207;SDS011;13153;52.316;21.166;2022-10-22T07:38:05;41.03;;;26.52;;
25207;SDS011;13153;52.316;21.166;2022-10-22T07:40:32;45.17;;;26.73;;
25207;SDS011;13153;52.316;21.166;2022-10-22T07:42:59;44.58;;;27.02;;
25207;SDS011;13153;52.316;21.166;2022-10-22T07:45:26;44.15;;;28.65;;
25207;SDS011;13153;52.316;21.166;2022-10-22T07:47:52;45.58;;;29.08;;
25207;SDS011;13153;52.316;21.166;2022-10-22T07:50:17;42.83;;;28.58;;
25207;SDS011;13153;52.316;21.166;2022-10-22T07:52:44;42.92;;;28.23;;
25207;SDS011;13153;52.316;21.166;2022-10-22T07:55:10;46.78;;;29.27;;
25207;SDS011;13153;52.316;21.166;2022-10-22T07:57:37;39.45;;;27.02;;
25207;SDS011;13153;52.316;21.166;2022-10-22T08:00:06;41.63;;;27.83;;
25207;SDS011;13153;52.316;21.166;2022-10-22T08:02:33;42.08;;;27.23;;
25207;SDS011;13153;52.316;21.166;2022-10-22T08:04:59;42.10;;;26.75;;
25207;SDS011;13153;52.316;21.166;2022-10-22T08:07:25;41.03;;;26.27;;
25207;SDS011;13153;52.316;21.166;2022-10-22T08:09:51;43.45;;;27.35;;
25207;SDS011;13153;52.316;21.166;2022-10-22T08:12:17;40.33;;;27.08;;
25207;SDS011;13153;52.316;21.166;2022-10-22T08:14:43;40.80;;;27.00;;
25207;SDS011;13153;52.316;21.166;2022-10-22T08:17:09;40.90;;;27.52;;
25207;SDS011;13153;52.316;21.166;2022-10-22T08:19:34;41.42;;;27.10;;
25207;SDS011;13153;52.316;21.166;2022-10-22T08:22:01;41.35;;;26.48;;
25207;SDS011;13153;52.316;21.166;2022-10-22T08:24:27;47.33;;;27.77;;
25207;SDS011;13153;52.316;21.166;2022-10-22T08:26:53;40.47;;;24.92;;
25207;SDS011;13153;52.316;21.166;2022-10-22T08:29:20;43.95;;;26.40;;
25207;SDS011;13153;52.316;21.166;2022-10-22T08:31:47;40.63;;;25.65;;
25207;SDS011;13153;52.316;21.166;2022-10-22T08:34:14;37.35;;;25.17;;
25207;SDS011;13153;52.316;21.166;2022-10-22T08:36:41;42.53;;;25.20;;
25207;SDS011;13153;52.316;21.166;2022-10-22T08:39:06;37.67;;;24.70;;
25207;SDS011;13153;52.316;21.166;2022-10-22T08:41:35;45.40;;;26.85;;
25207;SDS011;13153;52.316;21.166;2022-10-22T08:49:48;44.92;;;26.45;;
25207;SDS011;13153;52.316;21.166;2022-10-22T08:52:15;44.88;;;27.38;;
25207;SDS011;13153;52.316;21.166;2022-10-22T08:54:52;47.78;;;26.85;;
25207;SDS011;13153;52.316;21.166;2022-10-22T09:00:18;47.05;;;29.35;;
25207;SDS011;13153;52.316;21.166;2022-10-22T09:06:10;44.33;;;29.77;;
25207;SDS011;13153;52.316;21.166;2022-10-22T09:08:44;48.97;;;31.40;;
25207;SDS011;13153;52.316;21.166;2022-10-22T09:13:38;49.78;;;31.70;;
25207;SDS011;13153;52.316;21.166;2022-10-22T09:19:05;56.60;;;33.95;;
25207;SDS011;13153;52.316;21.166;2022-10-22T09:24:13;52.25;;;31.67;;
25207;SDS011;13153;52.316;21.166;2022-10-22T09:27:20;50.13;;;31.63;;
25207;SDS011;13153;52.316;21.166;2022-10-22T09:29:52;50.08;;;29.40;;
25207;SDS011;13153;52.316;21.166;2022-10-22T09:32:17;44.60;;;29.38;;
25207;SDS011;13153;52.316;21.166;2022-10-22T09:34:44;47.20;;;29.05;;
25207;SDS011;13153;52.316;21.166;2022-10-22T09:37:13;46.58;;;29.38;;
25207;SDS011;13153;52.316;21.166;2022-10-22T09:39:52;46.80;;;27.73;;
25207;SDS011;13153;52.316;21.166;2022-10-22T09:42:20;44.53;;;27.88;;
25207;SDS011;13153;52.316;21.166;2022-10-22T09:44:54;41.72;;;26.25;;
25207;SDS011;13153;52.316;21.166;2022-10-22T09:47:33;43.33;;;25.77;;
25207;SDS011;13153;52.316;21.166;2022-10-22T09:52:58;41.17;;;25.65;;
25207;SDS011;13153;52.316;21.166;2022-10-22T09:55:37;45.42;;;26.42;;
25207;SDS011;13153;52.316;21.166;2022-10-22T09:58:04;44.47;;;26.33;;
25207;SDS011;13153;52.316;21.166;2022-10-22T10:00:36;42.65;;;24.98;;
25207;SDS011;13153;52.316;21.166;2022-10-22T10:03:04;45.67;;;25.77;;
25207;SDS011;13153;52.316;21.166;2022-10-22T10:05:34;42.33;;;26.85;;
25207;SDS011;13153;52.316;21.166;2022-10-22T10:08:06;43.42;;;26.67;;
25207;SDS011;13153;52.316;21.166;2022-10-22T10:10:46;45.13;;;25.88;;
25207;SDS011;13153;52.316;21.166;2022-10-22T10:13:44;41.30;;;25.52;;
25207;SDS011;13153;52.316;21.166;2022-10-22T10:16:57;43.17;;;25.70;;
25207;SDS011;13153;52.316;21.166;2022-10-22T10:19:46;39.78;;;24.60;;
25207;SDS011;13153;52.316;21.166;2022-10-22T10:25:30;39.10;;;24.80;;
25207;SDS011;13153;52.316;21.166;2022-10-22T10:28:33;40.50;;;25.02;;
25207;SDS011;13153;52.316;21.166;2022-10-22T10:36:56;42.10;;;26.02;;
25207;SDS011;13153;52.316;21.166;2022-10-22T10:39:55;43.97;;;25.73;;
25207;SDS011;13153;52.316;21.166;2022-10-22T10:42:57;46.35;;;27.23;;
25207;SDS011;13153;52.316;21.166;2022-10-22T10:56:47;48.53;;;26.27;;
25207;SDS011;13153;52.316;21.166;2022-10-22T10:59:18;50.23;;;27.67;;
25207;SDS011;13153;52.316;21.166;2022-10-22T11:02:12;51.75;;;28.15;;
25207;SDS011;13153;52.316;21.166;2022-10-22T11:08:02;49.47;;;29.02;;
25207;SDS011;13153;52.316;21.166;2022-10-22T11:10:38;51.95;;;27.98;;
25207;SDS011;13153;52.316;21.166;2022-10-22T11:13:18;48.88;;;28.27;;
25207;SDS011;13153;52.316;21.166;2022-10-22T11:19:02;47.75;;;28.00;;
25207;SDS011;13153;52.316;21.166;2022-10-22T11:21:57;56.53;;;29.63;;
25207;SDS011;13153;52.316;21.166;2022-10-22T11:24:42;56.72;;;29.80;;
25207;SDS011;13153;52.316;21.166;2022-10-22T11:27:28;55.88;;;28.67;;
25207;SDS011;13153;52.316;21.166;2022-10-22T11:30:28;50.72;;;28.77;;
25207;SDS011;13153;52.316;21.166;2022-10-22T11:33:03;49.30;;;28.80;;
25207;SDS011;13153;52.316;21.166;2022-10-22T11:35:40;53.72;;;29.33;;
25207;SDS011;13153;52.316;21.166;2022-10-22T11:38:14;46.25;;;29.58;;
25207;SDS011;13153;52.316;21.166;2022-10-22T11:43:51;50.22;;;29.33;;
25207;SDS011;13153;52.316;21.166;2022-10-22T11:46:45;59.22;;;30.65;;
25207;SDS011;13153;52.316;21.166;2022-10-22T11:50:10;57.95;;;33.55;;
25207;SDS011;13153;52.316;21.166;2022-10-22T11:52:23;50.83;;;29.85;;
25207;SDS011;13153;52.316;21.166;2022-10-22T12:00:53;53.03;;;30.23;;
25207;SDS011;13153;52.316;21.166;2022-10-22T12:06:23;54.50;;;31.92;;
25207;SDS011;13153;52.316;21.166;2022-10-22T12:08:58;57.70;;;31.80;;
25207;SDS011;13153;52.316;21.166;2022-10-22T12:11:44;54.03;;;32.33;;
25207;SDS011;13153;52.316;21.166;2022-10-22T12:17:02;53.92;;;32.13;;
25207;SDS011;13153;52.316;21.166;2022-10-22T12:22:16;52.38;;;31.23;;
25207;SDS011;13153;52.316;21.166;2022-10-22T12:24:54;52.15;;;30.65;;
25207;SDS011;13153;52.316;21.166;2022-10-22T12:30:15;55.47;;;31.63;;
25207;SDS011;13153;52.316;21.166;2022-10-22T12:32:50;55.15;;;30.38;;
25207;SDS011;13153;52.316;21.166;2022-10-22T12:35:20;53.65;;;31.52;;
25207;SDS011;13153;52.316;21.166;2022-10-22T12:38:12;62.20;;;32.47;;
25207;SDS011;13153;52.316;21.166;2022-10-22T12:40:42;58.25;;;31.55;;
25207;SDS011;13153;52.316;21.166;2022-10-22T12:43:12;56.90;;;31.27;;
25207;SDS011;13153;52.316;21.166;2022-10-22T12:45:42;55.75;;;32.20;;
25207;SDS011;13153;52.316;21.166;2022-10-22T12:48:18;64.90;;;38.20;;
25207;SDS011;13153;52.316;21.166;2022-10-22T12:50:59;60.92;;;34.85;;
25207;SDS011;13153;52.316;21.166;2022-10-22T12:53:29;58.17;;;32.67;;
25207;SDS011;13153;52.316;21.166;2022-10-22T12:56:02;59.88;;;33.20;;
25207;SDS011;13153;52.316;21.166;2022-10-22T12:58:42;64.10;;;32.38;;
25207;SDS011;13153;52.316;21.166;2022-10-22T13:01:16;64.45;;;34.70;;
25207;SDS011;13153;52.316;21.166;2022-10-22T13:03:47;60.97;;;32.65;;
25207;SDS011;13153;52.316;21.166;2022-10-22T13:08:44;62.35;;;33.92;;
25207;SDS011;13153;52.316;21.166;2022-10-22T13:11:38;59.97;;;32.00;;
25207;SDS011;13153;52.316;21.166;2022-10-22T13:14:31;63.58;;;33.85;;
25207;SDS011;13153;52.316;21.166;2022-10-22T13:19:47;93.93;;;48.95;;
25207;SDS011;13153;52.316;21.166;2022-10-22T13:22:32;75.15;;;42.10;;
25207;SDS011;13153;52.316;21.166;2022-10-22T13:25:17;59.60;;;32.22;;
25207;SDS011;13153;52.316;21.166;2022-10-22T13:27:53;59.80;;;33.55;;
25207;SDS011;13153;52.316;21.166;2022-10-22T13:30:33;59.00;;;32.17;;
25207;SDS011;13153;52.316;21.166;2022-10-22T13:33:06;61.97;;;33.80;;
25207;SDS011;13153;52.316;21.166;2022-10-22T13:35:50;65.43;;;34.35;;
25207;SDS011;13153;52.316;21.166;2022-10-22T13:38:18;66.00;;;33.30;;
25207;SDS011;13153;52.316;21.166;2022-10-22T13:40:47;68.43;;;33.42;;
25207;SDS011;13153;52.316;21.166;2022-10-22T13:43:14;63.67;;;34.13;;
25207;SDS011;13153;52.316;21.166;2022-10-22T13:45:41;60.58;;;32.03;;
25207;SDS011;13153;52.316;21.166;2022-10-22T13:48:11;60.17;;;33.28;;
25207;SDS011;13153;52.316;21.166;2022-10-22T13:53:23;67.07;;;35.53;;
25207;SDS011;13153;52.316;21.166;2022-10-22T13:55:51;72.57;;;39.70;;
25207;SDS011;13153;52.316;21.166;2022-10-22T13:58:19;69.65;;;37.83;;
25207;SDS011;13153;52.316;21.166;2022-10-22T14:00:50;64.55;;;35.78;;
25207;SDS011;13153;52.316;21.166;2022-10-22T14:03:27;62.80;;;36.60;;
25207;SDS011;13153;52.316;21.166;2022-10-22T14:05:57;62.58;;;35.75;;
25207;SDS011;13153;52.316;21.166;2022-10-22T14:08:24;61.38;;;34.35;;
25207;SDS011;13153;52.316;21.166;2022-10-22T14:10:52;67.35;;;35.75;;
25207;SDS011;13153;52.316;21.166;2022-10-22T14:13:19;64.53;;;35.25;;
25207;SDS011;13153;52.316;21.166;2022-10-22T14:15:47;63.13;;;35.53;;
25207;SDS011;13153;52.316;21.166;2022-10-22T14:18:15;68.00;;;35.70;;
25207;SDS011;13153;52.316;21.166;2022-10-22T14:23:28;65.50;;;34.10;;
25207;SDS011;13153;52.316;21.166;2022-10-22T14:25:56;65.78;;;34.65;;
25207;SDS011;13153;52.316;21.166;2022-10-22T14:28:23;61.10;;;33.20;;
25207;SDS011;13153;52.316;21.166;2022-10-22T14:30:50;62.03;;;33.75;;
25207;SDS011;13153;52.316;21.166;2022-10-22T14:33:29;59.22;;;33.10;;
25207;SDS011;13153;52.316;21.166;2022-10-22T14:35:58;59.63;;;34.58;;
25207;SDS011;13153;52.316;21.166;2022-10-22T14:38:25;60.08;;;33.42;;
25207;SDS011;13153;52.316;21.166;2022-10-22T14:40:51;57.67;;;34.30;;
25207;SDS011;13153;52.316;21.166;2022-10-22T14:43:27;58.50;;;32.83;;
25207;SDS011;13153;52.316;21.166;2022-10-22T14:45:55;59.30;;;32.90;;
25207;SDS011;13153;52.316;21.166;2022-10-22T14:48:22;52.88;;;31.67;;
25207;SDS011;13153;52.316;21.166;2022-10-22T14:50:48;59.25;;;32.60;;
25207;SDS011;13153;52.316;21.166;2022-10-22T14:53:14;56.08;;;32.13;;
25207;SDS011;13153;52.316;21.166;2022-10-22T14:55:41;57.60;;;32.45;;
25207;SDS011;13153;52.316;21.166;2022-10-22T14:58:09;55.65;;;31.98;;
25207;SDS011;13153;52.316;21.166;2022-10-22T15:00:36;58.60;;;33.03;;
25207;SDS011;13153;52.316;21.166;2022-10-22T15:03:04;63.33;;;38.00;;
25207;SDS011;13153;52.316;21.166;2022-10-22T15:05:30;60.10;;;34.13;;
25207;SDS011;13153;52.316;21.166;2022-10-22T15:07:56;61.20;;;34.83;;
25207;SDS011;13153;52.316;21.166;2022-10-22T15:10:23;56.03;;;33.03;;
25207;SDS011;13153;52.316;21.166;2022-10-22T15:12:50;66.07;;;35.38;;
25207;SDS011;13153;52.316;21.166;2022-10-22T15:15:15;63.17;;;34.80;;
25207;SDS011;13153;52.316;21.166;2022-10-22T15:17:41;76.53;;;43.63;;
25207;SDS011;13153;52.316;21.166;2022-10-22T15:20:07;64.13;;;35.72;;
25207;SDS011;13153;52.316;21.166;2022-10-22T15:22:34;59.55;;;34.60;;
25207;SDS011;13153;52.316;21.166;2022-10-22T15:25:04;59.97;;;34.88;;
25207;SDS011;13153;52.316;21.166;2022-10-22T15:27:32;61.08;;;34.47;;
25207;SDS011;13153;52.316;21.166;2022-10-22T15:29:58;60.97;;;34.22;;
25207;SDS011;13153;52.316;21.166;2022-10-22T15:32:25;65.43;;;37.20;;
25207;SDS011;13153;52.316;21.166;2022-10-22T15:34:53;74.22;;;42.75;;
25207;SDS011;13153;52.316;21.166;2022-10-22T15:37:20;77.38;;;45.95;;
25207;SDS011;13153;52.316;21.166;2022-10-22T15:39:46;75.47;;;43.70;;
25207;SDS011;13153;52.316;21.166;2022-10-22T15:42:12;72.00;;;42.00;;
25207;SDS011;13153;52.316;21.166;2022-10-22T15:44:38;73.00;;;40.92;;
25207;SDS011;13153;52.316;21.166;2022-10-22T15:47:05;68.28;;;39.90;;
25207;SDS011;13153;52.316;21.166;2022-10-22T15:49:35;169.40;;;115.15;;
25207;SDS011;13153;52.316;21.166;2022-10-22T15:52:03;105.40;;;65.85;;
25207;SDS011;13153;52.316;21.166;2022-10-22T15:54:31;71.10;;;40.25;;
25207;SDS011;13153;52.316;21.166;2022-10-22T15:56:58;59.88;;;35.60;;
25207;SDS011;13153;52.316;21.166;2022-10-22T15:59:26;65.70;;;37.80;;
25207;SDS011;13153;52.316;21.166;2022-10-22T16:01:52;65.65;;;36.97;;
25207;SDS011;13153;52.316;21.166;2022-10-22T16:04:18;68.50;;;36.88;;
25207;SDS011;13153;52.316;21.166;2022-10-22T16:06:45;67.60;;;36.08;;
25207;SDS011;13153;52.316;21.166;2022-10-22T16:09:14;65.60;;;36.50;;
25207;SDS011;13153;52.316;21.166;2022-10-22T16:11:43;63.70;;;36.40;;
25207;SDS011;13153;52.316;21.166;2022-10-22T16:14:10;62.53;;;37.25;;
25207;SDS011;13153;52.316;21.166;2022-10-22T16:16:41;87.78;;;51.45;;
25207;SDS011;13153;52.316;21.166;2022-10-22T16:19:10;73.90;;;43.83;;
25207;SDS011;13153;52.316;21.166;2022-10-22T16:21:37;69.47;;;39.38;;
25207;SDS011;13153;52.316;21.166;2022-10-22T16:27:47;68.18;;;39.40;;
25207;SDS011;13153;52.316;21.166;2022-10-22T16:30:14;64.15;;;37.63;;
25207;SDS011;13153;52.316;21.166;2022-10-22T16:33:03;66.97;;;38.83;;